Time;durP1;ratioP1;P1;durP2;ratioP2;P2;SDS_P1;SDS_P2;PMS_P1;PMS_P2;Temp;Humidity;BMP_temperature;BMP_pressure;BME280_temperature;BME280_humidity;BME280_pressure;Samples;Min_cycle;Max_cycle;Signal;HPM_P1;HPM_P2
2021/12/18 00:01:17;;;;;;;1.75;0.98;;;7.70;99.90;;;;;;5057609;28;20059;-79
2021/12/18 00:03:44;;;;;;;6.70;1.17;;;7.70;99.90;;;;;;5074611;28;20507;-80
2021/12/18 00:06:09;;;;;;;2.88;1.40;;;7.70;99.90;;;;;;5074764;28;20488;-78
2021/12/18 00:08:36;;;;;;;2.65;1.00;;;7.70;99.90;;;;;;5074125;28;20086;-76
2021/12/18 00:11:03;;;;;;;2.55;0.88;;;7.70;99.90;;;;;;5073776;28;20056;-78
2021/12/18 00:13:28;;;;;;;1.73;0.60;;;7.60;99.90;;;;;;5057459;28;20523;-81
2021/12/18 00:15:54;;;;;;;3.42;1.00;;;7.60;99.90;;;;;;5074420;28;20044;-82
2021/12/18 00:18:20;;;;;;;1.70;0.70;;;7.60;99.90;;;;;;5073555;28;20040;-81
2021/12/18 00:20:47;;;;;;;2.42;0.88;;;7.60;99.90;;;;;;5057776;28;20100;-80
2021/12/18 00:23:13;;;;;;;2.15;0.60;;;7.60;99.90;;;;;;5073494;28;20504;-81
2021/12/18 00:25:39;;;;;;;4.60;0.90;;;7.60;99.90;;;;;;5057873;28;20396;-81
2021/12/18 00:28:05;;;;;;;2.95;1.08;;;7.60;99.90;;;;;;5074477;28;20036;-81
2021/12/18 00:30:33;;;;;;;2.47;1.08;;;7.60;99.90;;;;;;5056915;28;20055;-80
2021/12/18 00:32:59;;;;;;;2.80;1.20;;;7.60;99.90;;;;;;5073490;28;20554;-81
2021/12/18 00:35:25;;;;;;;7.30;1.20;;;7.60;99.90;;;;;;5057287;28;20043;-79
2021/12/18 00:37:50;;;;;;;5.53;1.23;;;7.60;99.90;;;;;;5074253;28;20044;-80
2021/12/18 00:40:23;;;;;;;8.85;1.40;;;7.60;99.90;;;;;;5072234;28;20040;-81
2021/12/18 00:43:02;;;;;;;5.70;1.27;;;7.60;99.90;;;;;;5073282;28;20066;-79
2021/12/18 00:45:29;;;;;;;2.90;1.42;;;7.60;99.90;;;;;;5073223;28;20059;-79
2021/12/18 00:47:56;;;;;;;3.95;0.80;;;7.60;99.90;;;;;;5057018;28;20056;-80
2021/12/18 00:50:25;;;;;;;3.42;1.42;;;7.60;99.90;;;;;;5073409;28;20059;-79
2021/12/18 00:52:51;;;;;;;3.00;1.30;;;7.60;99.90;;;;;;5057044;28;20040;-79
2021/12/18 00:55:20;;;;;;;18.23;1.77;;;7.60;99.90;;;;;;5057266;28;20126;-79
2021/12/18 00:57:46;;;;;;;4.72;1.67;;;7.60;99.90;;;;;;5073323;28;20478;-79
2021/12/18 01:00:14;;;;;;;5.05;1.20;;;7.60;99.90;;;;;;5073240;28;20524;-79
2021/12/18 01:02:43;;;;;;;3.60;1.40;;;7.60;99.90;;;;;;5056236;28;20032;-79
2021/12/18 01:05:10;;;;;;;6.82;1.67;;;7.60;99.90;;;;;;5056439;28;20039;-80
2021/12/18 01:07:37;;;;;;;4.20;1.63;;;7.60;99.90;;;;;;5054318;28;20392;-81
2021/12/18 01:10:37;;;;;;;13.65;1.83;;;7.60;99.90;;;;;;5044061;28;20043;-80
2021/12/18 01:13:05;;;;;;;12.55;2.05;;;7.60;99.90;;;;;;5056343;28;20090;-79
2021/12/18 01:15:35;;;;;;;6.63;1.75;;;7.50;99.90;;;;;;5073203;28;20079;-79
2021/12/18 01:23:30;;;;;;;4.30;1.70;;;7.50;99.90;;;;;;5073627;28;20558;-79
2021/12/18 01:25:57;;;;;;;6.93;1.70;;;7.60;99.90;;;;;;5072463;28;20044;-79
2021/12/18 01:28:23;;;;;;;4.32;1.35;;;7.50;99.90;;;;;;5056954;28;20474;-79
2021/12/18 01:30:50;;;;;;;6.82;1.58;;;7.50;99.90;;;;;;5072855;28;20499;-79
2021/12/18 01:33:16;;;;;;;7.63;1.25;;;7.50;99.90;;;;;;5056194;28;20036;-79
2021/12/18 01:35:43;;;;;;;3.42;0.95;;;7.50;99.90;;;;;;5072896;28;20077;-79
2021/12/18 01:38:12;;;;;;;3.53;1.33;;;7.40;99.90;;;;;;5053064;28;20045;-78
2021/12/18 01:40:39;;;;;;;3.08;1.73;;;7.40;99.90;;;;;;5066324;28;20085;-79
2021/12/18 01:54:21;;;;;;;4.70;1.60;;;7.30;99.90;;;;;;5034634;28;20075;-80
2021/12/18 01:56:46;;;;;;;8.25;1.73;;;7.30;99.90;;;;;;5056294;28;20090;-79
2021/12/18 01:59:12;;;;;;;11.45;1.95;;;7.30;99.90;;;;;;5055495;28;20495;-80
2021/12/18 02:01:38;;;;;;;4.47;2.20;;;7.30;99.90;;;;;;5055437;28;20044;-80
2021/12/18 02:04:04;;;;;;;5.05;1.90;;;7.40;99.90;;;;;;5056557;28;20078;-81
2021/12/18 02:06:29;;;;;;;5.03;3.00;;;7.30;99.90;;;;;;5072701;28;20411;-80
2021/12/18 02:08:56;;;;;;;13.00;2.90;;;7.40;99.90;;;;;;5072158;28;20040;-79
2021/12/18 02:22:02;;;;;;;5.68;3.15;;;7.40;99.90;;;;;;5071841;28;20484;-79
2021/12/18 02:24:31;;;;;;;27.92;3.20;;;7.30;99.90;;;;;;5055755;28;20042;-79
2021/12/18 02:26:58;;;;;;;23.90;3.35;;;7.30;99.90;;;;;;5072475;28;20044;-79
2021/12/18 02:29:24;;;;;;;12.68;2.95;;;7.30;99.90;;;;;;5054764;28;20040;-79
2021/12/18 02:31:50;;;;;;;21.52;3.80;;;7.30;99.90;;;;;;5072242;28;20388;-80
2021/12/18 02:34:23;;;;;;;17.75;3.15;;;7.30;99.90;;;;;;5055822;28;20040;-83
2021/12/18 02:36:49;;;;;;;;;;;7.20;99.90;;;;;;5072239;28;20048;-82
2021/12/18 02:39:42;;;;;;;19.42;2.20;;;7.30;99.90;;;;;;5055985;28;19974;-82
2021/12/18 02:42:08;;;;;;;33.40;3.55;;;7.20;99.90;;;;;;5073347;28;20059;-83
2021/12/18 02:44:36;;;;;;;15.10;2.70;;;7.20;99.90;;;;;;5076233;28;20035;-83
2021/12/18 02:47:03;;;;;;;17.58;2.63;;;7.10;99.90;;;;;;5059367;28;20048;-81
2021/12/18 02:49:28;;;;;;;45.78;3.05;;;7.20;99.90;;;;;;5058758;28;20048;-82
2021/12/18 02:51:54;;;;;;;10.90;2.40;;;7.10;99.90;;;;;;5059628;28;20612;-83
2021/12/18 02:54:20;;;;;;;10.65;2.47;;;7.10;99.90;;;;;;5075993;28;20036;-83
2021/12/18 02:56:45;;;;;;;18.33;1.88;;;7.00;99.90;;;;;;5056905;28;20048;-80
2021/12/18 02:59:11;;;;;;;11.68;1.83;;;7.00;99.90;;;;;;5059754;28;20077;-82
2021/12/18 03:01:39;;;;;;;22.10;2.05;;;7.00;99.90;;;;;;5059979;28;20063;-82
2021/12/18 03:04:27;;;;;;;20.67;2.00;;;6.90;99.90;;;;;;5058971;28;20044;-86
2021/12/18 03:06:59;;;;;;;23.45;2.55;;;6.90;99.90;;;;;;5046180;28;20151;-81
2021/12/18 03:21:03;;;;;;;3.75;1.98;;;6.90;99.90;;;;;;5092977;28;20048;-78
2021/12/18 03:23:28;;;;;;;11.05;1.30;;;6.90;99.90;;;;;;5075454;28;22152;-79
2021/12/18 03:25:59;;;;;;;23.10;1.25;;;6.90;99.90;;;;;;5057449;28;20067;-79
2021/12/18 03:28:26;;;;;;;3.55;1.00;;;6.90;99.90;;;;;;5074729;28;20489;-82
2021/12/18 03:30:52;;;;;;;5.18;0.90;;;6.90;99.90;;;;;;5039080;28;20044;-80
2021/12/18 03:33:18;;;;;;;3.15;0.90;;;6.80;99.90;;;;;;5049194;28;20119;-80
2021/12/18 03:35:44;;;;;;;2.92;0.60;;;6.70;99.90;;;;;;5075704;28;20036;-81
2021/12/18 03:38:10;;;;;;;1.15;0.30;;;6.80;99.90;;;;;;5074579;28;20036;-80
2021/12/18 03:40:38;;;;;;;1.45;0.40;;;6.80;99.90;;;;;;5059487;28;20044;-80
2021/12/18 03:43:03;;;;;;;2.00;0.40;;;6.70;99.90;;;;;;5057961;28;20040;-79
2021/12/18 03:45:29;;;;;;;2.97;0.60;;;6.70;99.90;;;;;;5057938;28;20433;-80
2021/12/18 03:47:55;;;;;;;1.98;0.47;;;6.70;99.90;;;;;;5057929;28;20047;-81
2021/12/18 03:50:22;;;;;;;6.07;0.50;;;6.70;99.90;;;;;;5059341;28;20047;-79
2021/12/18 03:52:51;;;;;;;1.60;0.45;;;6.70;99.90;;;;;;5073562;28;20455;-78
2021/12/18 03:55:17;;;;;;;1.95;0.40;;;6.70;99.90;;;;;;5058803;28;20127;-80
2021/12/18 03:57:43;;;;;;;2.55;0.32;;;6.70;99.90;;;;;;5073555;28;20483;-79
2021/12/18 04:00:12;;;;;;;1.50;0.40;;;6.70;99.90;;;;;;5075085;28;20040;-78
2021/12/18 04:02:37;;;;;;;2.90;0.32;;;6.70;99.90;;;;;;5039526;28;20044;-81
2021/12/18 04:05:03;;;;;;;2.03;0.30;;;6.70;99.90;;;;;;5074618;28;20120;-80
2021/12/18 04:07:29;;;;;;;2.33;0.30;;;6.70;99.90;;;;;;5074112;28;20113;-82
2021/12/18 04:09:55;;;;;;;2.00;0.28;;;6.80;99.90;;;;;;5075420;28;20423;-83
2021/12/18 04:12:20;;;;;;;1.30;0.20;;;6.70;99.90;;;;;;5074667;28;20476;-79
2021/12/18 04:14:46;;;;;;;2.65;0.45;;;6.70;99.90;;;;;;5056794;28;20046;-79
2021/12/18 04:17:12;;;;;;;3.25;0.30;;;6.70;99.90;;;;;;5057896;28;20046;-79
2021/12/18 04:19:38;;;;;;;1.75;0.38;;;6.70;99.90;;;;;;5075418;28;20528;-81
2021/12/18 04:22:04;;;;;;;1.30;0.30;;;6.70;99.90;;;;;;5074028;28;20120;-82
2021/12/18 04:24:29;;;;;;;1.23;0.25;;;6.60;99.90;;;;;;5057768;28;20404;-79
2021/12/18 04:26:56;;;;;;;1.38;0.30;;;6.60;99.90;;;;;;5055959;28;20044;-80
2021/12/18 04:29:21;;;;;;;1.77;0.40;;;6.60;99.90;;;;;;5069392;28;20046;-80
2021/12/18 04:31:47;;;;;;;1.73;0.40;;;6.60;99.90;;;;;;5074161;28;20048;-79
2021/12/18 04:34:12;;;;;;;1.30;0.22;;;6.60;99.90;;;;;;5074564;28;20052;-81
2021/12/18 04:36:38;;;;;;;1.70;0.30;;;6.50;99.90;;;;;;5057131;28;20048;-81
2021/12/18 04:39:04;;;;;;;1.13;0.20;;;6.50;99.90;;;;;;5057871;28;20055;-86
2021/12/18 04:41:39;;;;;;;2.38;0.20;;;6.50;99.90;;;;;;5056310;28;20508;-81
2021/12/18 04:44:05;;;;;;;1.85;0.40;;;6.50;99.90;;;;;;5057962;28;20377;-85
2021/12/18 04:46:32;;;;;;;1.10;0.20;;;6.50;99.90;;;;;;5073473;28;20047;-87
2021/12/18 04:48:57;;;;;;;5.43;0.30;;;6.40;99.90;;;;;;5057465;28;20396;-81
2021/12/18 04:51:23;;;;;;;1.00;0.30;;;6.50;99.90;;;;;;5057407;28;20040;-82
2021/12/18 04:53:49;;;;;;;1.45;0.40;;;6.50;99.90;;;;;;5057245;28;20040;-81
2021/12/18 04:56:14;;;;;;;2.83;0.43;;;6.40;99.90;;;;;;5056955;28;20143;-81
2021/12/18 04:58:40;;;;;;;1.90;0.70;;;6.50;99.90;;;;;;5056735;28;20040;-80
2021/12/18 05:01:06;;;;;;;3.15;0.65;;;6.50;99.90;;;;;;5074015;28;20035;-80
2021/12/18 05:03:32;;;;;;;2.08;0.95;;;6.50;99.90;;;;;;5072822;28;20036;-80
2021/12/18 05:06:00;;;;;;;3.92;1.23;;;6.50;99.90;;;;;;5056593;28;20101;-80
2021/12/18 05:08:26;;;;;;;5.65;1.45;;;6.40;99.90;;;;;;5057241;28;20040;-80
2021/12/18 05:10:51;;;;;;;9.70;1.58;;;6.60;99.90;;;;;;5055706;28;20089;-82
2021/12/18 05:13:17;;;;;;;4.72;2.00;;;6.50;99.90;;;;;;5056752;28;20098;-80
2021/12/18 05:15:43;;;;;;;4.80;2.25;;;6.50;99.90;;;;;;5056124;28;20420;-79
2021/12/18 05:18:10;;;;;;;4.55;1.85;;;6.50;99.90;;;;;;5072996;28;20047;-79
2021/12/18 05:20:36;;;;;;;2.85;1.02;;;6.40;99.90;;;;;;5073447;28;20054;-79
2021/12/18 05:23:02;;;;;;;4.07;1.20;;;6.50;99.90;;;;;;5073130;28;20048;-78
2021/12/18 05:25:27;;;;;;;3.05;0.88;;;6.40;99.90;;;;;;5056320;28;20039;-78
2021/12/18 05:27:53;;;;;;;1.92;0.70;;;6.40;99.90;;;;;;5055480;28;20040;-78
2021/12/18 05:30:18;;;;;;;2.78;0.68;;;6.40;99.90;;;;;;5056855;28;20036;-78
2021/12/18 05:32:44;;;;;;;5.60;1.02;;;6.40;99.90;;;;;;5047584;28;20108;-83
2021/12/18 05:35:10;;;;;;;3.28;0.90;;;6.40;99.90;;;;;;5056491;28;20048;-81
2021/12/18 05:37:48;;;;;;;2.80;0.40;;;6.40;99.90;;;;;;5056038;28;20173;-81
2021/12/18 05:40:17;;;;;;;4.88;0.88;;;6.30;99.90;;;;;;5073375;28;20048;-83
2021/12/18 05:42:43;;;;;;;5.40;0.57;;;6.30;99.90;;;;;;5069380;28;20071;-83
2021/12/18 05:45:09;;;;;;;4.18;0.55;;;6.30;99.90;;;;;;5086397;28;20078;-79
2021/12/18 05:47:35;;;;;;;3.17;0.60;;;6.30;99.90;;;;;;5039511;28;20082;-80
2021/12/18 05:50:01;;;;;;;4.25;0.80;;;6.30;99.90;;;;;;5053506;28;20414;-80
2021/12/18 05:52:27;;;;;;;4.28;0.95;;;6.30;99.90;;;;;;5035441;28;20036;-80
2021/12/18 05:54:53;;;;;;;5.78;1.10;;;6.30;99.90;;;;;;5052989;28;20044;-80
2021/12/18 05:57:18;;;;;;;7.25;1.15;;;6.40;99.90;;;;;;5040479;28;20052;-80
2021/12/18 05:59:44;;;;;;;5.25;0.88;;;6.40;99.90;;;;;;5036015;28;20036;-80
2021/12/18 06:02:10;;;;;;;5.20;1.15;;;6.40;99.90;;;;;;5052608;28;20485;-79
2021/12/18 06:04:36;;;;;;;5.07;0.93;;;6.40;99.90;;;;;;5053547;28;20086;-79
2021/12/18 06:07:07;;;;;;;7.95;1.30;;;6.40;99.90;;;;;;5051786;28;20056;-81
2021/12/18 06:09:35;;;;;;;5.10;1.13;;;6.40;99.90;;;;;;5035825;28;20048;-82
2021/12/18 06:12:02;;;;;;;3.97;1.02;;;6.40;99.90;;;;;;5052426;28;20052;-83
2021/12/18 06:14:29;;;;;;;6.60;1.00;;;6.50;99.90;;;;;;5052069;28;20543;-82
2021/12/18 06:16:54;;;;;;;7.47;1.00;;;6.40;99.90;;;;;;5034600;28;20062;-82
2021/12/18 06:19:20;;;;;;;6.38;0.90;;;6.50;99.90;;;;;;5052875;28;20044;-82
2021/12/18 06:21:58;;;;;;;6.28;1.08;;;6.50;99.90;;;;;;5068942;28;20151;-82
2021/12/18 06:24:26;;;;;;;7.78;1.27;;;6.50;99.90;;;;;;5069437;28;20119;-80
2021/12/18 06:26:52;;;;;;;11.75;1.20;;;6.50;99.90;;;;;;5052577;28;20048;-80
2021/12/18 06:29:18;;;;;;;7.85;1.50;;;6.50;99.90;;;;;;5051746;28;20044;-79
2021/12/18 06:31:43;;;;;;;8.23;1.42;;;6.50;99.90;;;;;;5052309;28;20053;-79
2021/12/18 06:34:09;;;;;;;8.80;1.60;;;6.50;99.90;;;;;;5035469;28;20044;-79
2021/12/18 06:36:37;;;;;;;7.30;1.67;;;6.50;99.90;;;;;;5036359;28;20052;-78
2021/12/18 06:39:03;;;;;;;9.88;1.90;;;6.50;99.90;;;;;;5052975;28;20040;-79
2021/12/18 06:41:29;;;;;;;5.43;1.70;;;6.50;99.90;;;;;;5050902;28;20620;-78
2021/12/18 06:43:54;;;;;;;8.07;2.30;;;6.60;99.90;;;;;;5052426;28;20090;-81
2021/12/18 06:46:20;;;;;;;7.38;2.95;;;6.60;99.90;;;;;;5057943;28;20059;-80
2021/12/18 06:48:46;;;;;;;10.82;2.40;;;6.60;99.90;;;;;;5054875;28;20188;-81
2021/12/18 06:51:11;;;;;;;8.57;2.72;;;6.60;99.90;;;;;;5072519;28;20048;-81
2021/12/18 06:53:38;;;;;;;6.53;2.08;;;6.60;99.90;;;;;;5056029;28;20051;-80
2021/12/18 06:56:04;;;;;;;9.48;2.15;;;6.60;99.90;;;;;;5055674;28;20412;-80
2021/12/18 06:58:30;;;;;;;11.05;2.83;;;6.60;99.90;;;;;;5051241;28;20047;-79
2021/12/18 07:00:55;;;;;;;8.63;2.80;;;6.70;99.90;;;;;;5055657;28;20707;-80
2021/12/18 07:03:21;;;;;;;6.80;2.58;;;6.60;99.90;;;;;;5054972;28;20404;-81
2021/12/18 07:05:48;;;;;;;9.32;2.60;;;6.60;99.90;;;;;;5055974;28;20106;-82
2021/12/18 07:08:14;;;;;;;9.68;3.25;;;6.70;99.90;;;;;;5055365;28;20382;-79
2021/12/18 07:10:40;;;;;;;9.63;3.28;;;6.70;99.90;;;;;;5054998;28;20040;-78
2021/12/18 07:13:05;;;;;;;8.48;2.83;;;6.70;99.90;;;;;;5055769;28;20044;-80
2021/12/18 07:15:31;;;;;;;10.57;2.72;;;6.70;99.90;;;;;;5072293;28;20411;-81
2021/12/18 07:17:57;;;;;;;9.32;2.80;;;6.70;99.90;;;;;;5054553;28;20044;-79
2021/12/18 07:20:22;;;;;;;8.23;3.22;;;6.70;99.90;;;;;;5072331;28;20168;-81
2021/12/18 07:22:48;;;;;;;10.48;2.70;;;6.70;99.90;;;;;;5068584;28;20044;-80
2021/12/18 07:25:14;;;;;;;9.32;3.33;;;6.70;99.90;;;;;;5037684;28;20137;-82
2021/12/18 07:27:40;;;;;;;15.63;4.00;;;6.70;99.90;;;;;;5073435;28;20038;-81
2021/12/18 07:30:06;;;;;;;9.50;3.30;;;6.70;99.90;;;;;;5059042;28;20083;-80
2021/12/18 07:32:31;;;;;;;9.00;3.25;;;6.70;99.90;;;;;;5074588;28;20032;-80
2021/12/18 07:34:57;;;;;;;9.15;3.15;;;6.70;99.90;;;;;;5059642;28;20052;-81
2021/12/18 07:37:24;;;;;;;9.88;3.15;;;6.70;99.90;;;;;;5074327;28;20549;-82
2021/12/18 07:39:51;;;;;;;9.90;3.45;;;6.70;99.90;;;;;;5075387;28;20446;-81
2021/12/18 07:42:16;;;;;;;9.40;3.35;;;6.70;99.90;;;;;;5058401;28;20036;-81
2021/12/18 07:44:42;;;;;;;8.18;2.85;;;6.70;99.90;;;;;;5074767;28;20389;-83
2021/12/18 07:47:08;;;;;;;10.93;3.42;;;6.80;99.90;;;;;;5074232;28;20047;-80
2021/12/18 07:49:34;;;;;;;8.98;3.20;;;6.80;99.90;;;;;;5058940;28;20134;-79
2021/12/18 07:52:03;;;;;;;10.57;3.53;;;6.80;99.90;;;;;;5073900;28;20040;-80
2021/12/18 07:54:28;;;;;;;16.98;4.22;;;6.80;99.90;;;;;;5058304;28;20055;-79
2021/12/18 07:56:54;;;;;;;9.55;3.30;;;6.90;99.90;;;;;;5055073;28;20410;-79
2021/12/18 07:59:20;;;;;;;8.00;2.97;;;6.90;99.90;;;;;;5024796;28;20036;-75
2021/12/18 08:01:45;;;;;;;10.95;3.67;;;6.90;99.90;;;;;;5038360;28;20653;-75
2021/12/18 08:04:11;;;;;;;9.25;3.85;;;6.90;99.90;;;;;;5072475;28;20456;-78
2021/12/18 08:06:37;;;;;;;9.88;3.63;;;6.90;99.90;;;;;;5075074;28;20040;-80
2021/12/18 08:09:02;;;;;;;10.77;4.13;;;6.90;99.90;;;;;;5057931;28;20051;-80
2021/12/18 08:11:28;;;;;;;10.48;3.90;;;6.90;99.90;;;;;;5058668;28;20472;-78
2021/12/18 08:13:54;;;;;;;10.05;3.25;;;6.90;99.90;;;;;;5057334;28;20044;-76
2021/12/18 08:16:19;;;;;;;12.02;4.78;;;7.00;99.90;;;;;;5075048;28;20047;-75
2021/12/18 08:18:45;;;;;;;11.30;3.97;;;7.00;99.90;;;;;;5074020;28;20122;-79
2021/12/18 08:21:11;;;;;;;10.75;3.72;;;7.00;99.90;;;;;;5074352;28;20147;-79
2021/12/18 08:23:36;;;;;;;7.75;3.00;;;7.00;99.90;;;;;;5052815;28;20067;-79
2021/12/18 08:26:02;;;;;;;6.45;2.97;;;7.10;99.90;;;;;;5055806;28;20052;-77
2021/12/18 08:28:28;;;;;;;9.30;3.40;;;7.10;99.90;;;;;;5071182;28;20430;-79
2021/12/18 08:30:54;;;;;;;12.25;3.80;;;7.10;99.90;;;;;;5074927;28;20040;-77
2021/12/18 08:33:19;;;;;;;8.93;2.80;;;7.10;99.90;;;;;;5073194;28;20529;-77
2021/12/18 08:35:45;;;;;;;8.80;3.05;;;7.10;99.90;;;;;;5057029;28;20139;-78
2021/12/18 08:38:11;;;;;;;4.97;2.22;;;7.20;99.90;;;;;;5049013;28;20135;-81
2021/12/18 08:40:36;;;;;;;6.47;2.45;;;7.20;99.90;;;;;;5057455;28;20040;-79
2021/12/18 08:43:03;;;;;;;9.48;3.10;;;7.20;99.90;;;;;;5057232;28;20133;-77
2021/12/18 08:45:29;;;;;;;7.60;3.05;;;7.20;99.90;;;;;;5057146;28;20308;-82
2021/12/18 08:47:55;;;;;;;6.45;2.58;;;7.20;99.90;;;;;;5056420;28;20059;-82
2021/12/18 08:50:22;;;;;;;9.32;3.40;;;7.20;99.90;;;;;;5073929;28;20051;-79
2021/12/18 08:52:50;;;;;;;8.27;3.10;;;7.30;99.90;;;;;;5073748;28;20559;-79
2021/12/18 08:55:17;;;;;;;11.35;3.40;;;7.30;99.90;;;;;;5073873;28;20097;-84
2021/12/18 08:57:43;;;;;;;7.78;3.13;;;7.30;99.90;;;;;;5064703;28;20884;-80
2021/12/18 09:00:11;;;;;;;8.70;2.70;;;7.30;99.90;;;;;;5054390;28;20056;-80
2021/12/18 09:02:40;;;;;;;9.13;3.00;;;7.30;99.90;;;;;;5047095;28;20089;-80
2021/12/18 09:05:07;;;;;;;9.20;3.88;;;7.40;99.90;;;;;;5073265;28;20039;-83
2021/12/18 09:07:34;;;;;;;7.72;2.80;;;7.40;99.90;;;;;;5052169;28;20039;-82
2021/12/18 09:09:59;;;;;;;7.25;2.65;;;7.40;99.90;;;;;;5072213;28;20435;-82
2021/12/18 09:12:25;;;;;;;8.93;3.17;;;7.50;99.90;;;;;;5092021;28;20054;-81
2021/12/18 09:14:51;;;;;;;13.57;4.05;;;7.50;99.90;;;;;;5089041;28;20457;-81
2021/12/18 09:17:17;;;;;;;9.05;3.38;;;7.50;99.90;;;;;;5072812;28;20064;-80
2021/12/18 09:19:43;;;;;;;12.05;3.33;;;7.50;99.90;;;;;;5072780;28;20055;-83
2021/12/18 09:22:09;;;;;;;9.73;3.95;;;7.50;99.90;;;;;;5071786;28;20089;-82
2021/12/18 09:24:35;;;;;;;7.10;3.15;;;7.60;99.90;;;;;;5090627;28;20519;-82
2021/12/18 09:27:01;;;;;;;7.57;2.75;;;7.60;99.90;;;;;;5055874;28;20071;-82
2021/12/18 09:29:26;;;;;;;12.38;3.70;;;7.70;99.90;;;;;;5057056;28;20436;-82
2021/12/18 09:31:52;;;;;;;11.40;3.83;;;7.70;99.90;;;;;;5072564;28;20071;-83
2021/12/18 09:34:18;;;;;;;7.88;3.33;;;7.70;99.90;;;;;;5052254;28;20041;-82
2021/12/18 09:36:43;;;;;;;9.15;3.38;;;7.70;99.90;;;;;;5061437;28;20385;-83
2021/12/18 09:39:09;;;;;;;6.85;3.67;;;7.80;99.90;;;;;;5036725;28;20063;-82
2021/12/18 09:41:36;;;;;;;11.90;4.90;;;7.80;99.90;;;;;;5051043;28;20044;-83
2021/12/18 09:44:02;;;;;;;13.27;4.30;;;7.80;99.90;;;;;;5070694;28;20123;-83
2021/12/18 09:46:31;;;;;;;10.68;4.45;;;7.90;99.90;;;;;;5054586;28;20205;-83
2021/12/18 09:48:57;;;;;;;9.70;4.30;;;7.90;99.90;;;;;;5055629;28;20044;-82
2021/12/18 09:51:27;;;;;;;8.40;3.33;;;7.90;99.90;;;;;;5053581;28;20502;-84
2021/12/18 09:53:54;;;;;;;7.97;3.45;;;7.90;99.90;;;;;;5073197;28;20039;-75
2021/12/18 09:56:21;;;;;;;9.23;4.07;;;8.00;99.90;;;;;;5053264;28;20127;-74
2021/12/18 09:58:47;;;;;;;9.40;4.18;;;8.10;99.90;;;;;;5072200;28;20427;-82
2021/12/18 10:01:13;;;;;;;8.23;3.53;;;8.10;99.90;;;;;;5072842;28;20036;-82
2021/12/18 10:03:54;;;;;;;7.05;3.60;;;8.10;99.90;;;;;;5073014;28;20395;-81
2021/12/18 10:06:33;;;;;;;6.60;3.03;;;8.20;99.90;;;;;;5055186;28;20051;-74
2021/12/18 10:08:59;;;;;;;6.72;3.47;;;8.30;99.90;;;;;;5072847;28;20044;-74
2021/12/18 10:11:25;;;;;;;9.75;4.45;;;8.30;99.90;;;;;;5072512;28;20085;-82
2021/12/18 10:13:56;;;;;;;8.60;3.50;;;8.30;99.90;;;;;;5071564;28;20035;-74
2021/12/18 10:16:23;;;;;;;11.15;3.75;;;8.40;99.90;;;;;;5061474;28;20072;-84
2021/12/18 10:18:50;;;;;;;13.93;5.07;;;8.40;99.90;;;;;;5059686;28;20134;-76
2021/12/18 10:21:23;;;;;;;9.45;4.15;;;8.50;99.90;;;;;;5052666;28;20047;-85
2021/12/18 10:23:51;;;;;;;9.43;3.35;;;8.50;99.90;;;;;;5053669;28;20051;-81
2021/12/18 10:26:37;;;;;;;8.68;3.40;;;8.50;99.90;;;;;;5070537;28;20059;-83
2021/12/18 10:29:28;;;;;;;8.25;4.18;;;8.50;99.90;;;;;;5053014;28;20089;-86
2021/12/18 10:31:55;;;;;;;9.00;4.65;;;8.60;99.90;;;;;;5066893;28;20126;-81
2021/12/18 10:34:27;;;;;;;7.45;3.53;;;8.60;99.90;;;;;;5072070;28;20040;-75
2021/12/18 10:37:19;;;;;;;7.63;3.67;;;8.60;99.90;;;;;;5054078;28;20059;-86
2021/12/18 10:39:57;;;;;;;9.40;4.63;;;8.60;99.90;;;;;;5069209;28;20051;-83
2021/12/18 10:42:42;;;;;;;13.32;4.82;;;8.60;99.90;;;;;;5072255;28;20113;-83
2021/12/18 10:45:34;;;;;;;7.88;3.60;;;8.60;99.90;;;;;;5045884;28;20044;-84
2021/12/18 10:48:11;;;;;;;8.23;3.47;;;8.60;99.90;;;;;;5072805;28;20412;-74
2021/12/18 10:50:49;;;;;;;7.72;4.18;;;8.70;99.90;;;;;;5072880;28;20040;-85
2021/12/18 10:53:18;;;;;;;10.23;4.40;;;8.70;99.90;;;;;;5072018;28;20048;-84
2021/12/18 10:55:48;;;;;;;8.60;4.75;;;8.70;99.90;;;;;;5069473;28;20048;-84
2021/12/18 10:58:30;;;;;;;10.00;5.70;;;8.70;99.90;;;;;;5085784;28;20088;-74
2021/12/18 11:01:00;;;;;;;14.30;5.43;;;8.70;99.90;;;;;;5066730;28;20048;-79
2021/12/18 11:03:46;;;;;;;8.52;4.05;;;8.70;99.90;;;;;;5075476;28;20042;-74
2021/12/18 11:06:21;;;;;;;9.82;3.95;;;8.80;99.90;;;;;;5059640;28;20067;-81
2021/12/18 11:08:53;;;;;;;8.75;4.22;;;8.80;99.90;;;;;;5058228;28;20040;-81
2021/12/18 11:14:11;;;;;;;12.57;4.60;;;8.80;99.90;;;;;;5037486;28;20044;-75
2021/12/18 11:16:41;;;;;;;6.97;4.38;;;8.80;99.90;;;;;;5075673;28;20044;-82
2021/12/18 11:19:11;;;;;;;10.30;5.10;;;8.80;99.90;;;;;;5075573;28;20044;-84
2021/12/18 11:21:38;;;;;;;9.95;5.00;;;8.80;99.90;;;;;;5058407;28;20085;-83
2021/12/18 11:24:08;;;;;;;8.80;5.25;;;8.80;99.90;;;;;;5059497;28;20123;-83
2021/12/18 11:26:41;;;;;;;9.35;4.95;;;8.80;99.90;;;;;;5074975;28;20044;-84
2021/12/18 11:29:20;;;;;;;9.45;4.88;;;8.80;99.90;;;;;;5075054;28;20052;-83
2021/12/18 11:31:47;;;;;;;10.55;4.88;;;8.90;99.90;;;;;;5072808;28;20044;-81
2021/12/18 11:34:13;;;;;;;10.90;5.40;;;8.90;99.90;;;;;;5071151;28;20096;-84
2021/12/18 11:36:41;;;;;;;13.52;5.10;;;8.90;99.90;;;;;;5075303;28;20047;-84
2021/12/18 11:39:08;;;;;;;7.72;3.72;;;8.90;99.90;;;;;;5058660;28;20052;-81
2021/12/18 11:41:35;;;;;;;5.88;3.67;;;8.90;99.90;;;;;;5075007;28;20096;-83
2021/12/18 11:44:03;;;;;;;7.32;3.03;;;8.90;99.90;;;;;;5057877;28;20067;-82
2021/12/18 11:46:37;;;;;;;3.78;2.75;;;8.90;99.90;;;;;;5052113;28;20181;-79
2021/12/18 11:49:06;;;;;;;5.10;2.10;;;8.90;99.90;;;;;;5056771;28;20063;-82
2021/12/18 11:51:32;;;;;;;5.15;2.60;;;8.90;99.90;;;;;;5075042;28;20066;-84
2021/12/18 11:53:59;;;;;;;4.63;2.35;;;8.90;99.90;;;;;;5074274;28;20536;-83
2021/12/18 11:56:26;;;;;;;4.47;1.55;;;8.80;99.90;;;;;;5054647;28;20095;-76
2021/12/18 11:58:52;;;;;;;3.05;1.40;;;8.90;99.90;;;;;;5057668;28;20119;-76
2021/12/18 12:01:26;;;;;;;3.53;1.10;;;8.80;99.90;;;;;;5058156;28;20059;-82
2021/12/18 12:03:52;;;;;;;3.20;0.88;;;8.80;99.90;;;;;;5057432;28;20123;-85
2021/12/18 12:06:30;;;;;;;2.20;0.70;;;8.80;99.90;;;;;;5058563;28;20516;-77
2021/12/18 12:09:36;;;;;;;1.50;0.40;;;8.90;99.90;;;;;;5058323;28;20047;-86
2021/12/18 12:12:06;;;;;;;2.28;0.45;;;8.90;99.90;;;;;;5053159;28;20040;-84
2021/12/18 12:14:40;;;;;;;1.10;0.22;;;9.00;99.90;;;;;;5060451;28;20500;-84
2021/12/18 12:17:15;;;;;;;1.40;0.20;;;9.00;99.90;;;;;;5057029;28;20087;-82
2021/12/18 12:19:46;;;;;;;1.80;0.20;;;9.00;99.90;;;;;;5074963;28;20078;-82
2021/12/18 12:22:36;;;;;;;1.90;0.23;;;9.10;99.90;;;;;;5074577;28;20043;-83
2021/12/18 12:25:05;;;;;;;0.88;0.30;;;9.00;99.90;;;;;;5074325;28;20794;-82
2021/12/18 12:27:38;;;;;;;1.98;0.40;;;9.00;99.90;;;;;;5074331;28;20048;-82
2021/12/18 12:30:27;;;;;;;1.42;0.47;;;9.00;99.90;;;;;;5058568;28;20128;-76
2021/12/18 12:32:58;;;;;;;4.20;0.88;;;9.00;99.90;;;;;;5058124;28;20071;-83
2021/12/18 12:35:25;;;;;;;3.90;1.30;;;9.00;99.90;;;;;;5054759;28;20047;-83
2021/12/18 12:37:50;;;;;;;2.83;1.33;;;9.00;99.90;;;;;;5054107;28;20381;-75
2021/12/18 12:40:31;;;;;;;3.55;1.45;;;9.00;99.90;;;;;;5053889;28;20044;-83
2021/12/18 12:43:21;;;;;;;2.83;1.50;;;9.00;99.90;;;;;;5063328;28;20052;-83
2021/12/18 12:45:49;;;;;;;4.32;1.30;;;8.90;99.90;;;;;;5056557;28;20048;-83
2021/12/18 12:48:16;;;;;;;5.15;1.75;;;8.90;99.90;;;;;;5070933;28;20051;-83
2021/12/18 12:50:42;;;;;;;4.38;1.20;;;8.90;99.90;;;;;;5054996;28;20048;-83
2021/12/18 12:53:10;;;;;;;3.55;1.73;;;8.90;99.90;;;;;;5057362;28;20072;-83
2021/12/18 12:55:44;;;;;;;5.95;2.00;;;8.90;99.90;;;;;;5057806;28;20051;-83
2021/12/18 12:58:26;;;;;;;4.65;1.90;;;9.00;99.90;;;;;;5054732;28;20044;-83
2021/12/18 13:01:01;;;;;;;6.38;2.00;;;9.00;99.90;;;;;;5053659;28;20037;-82
2021/12/18 13:03:33;;;;;;;3.83;2.10;;;9.00;99.90;;;;;;5054266;28;20041;-83
2021/12/18 13:06:08;;;;;;;4.25;1.70;;;9.00;99.90;;;;;;5038179;28;20048;-82
2021/12/18 13:08:39;;;;;;;3.95;1.75;;;9.00;99.90;;;;;;5073727;28;20510;-83
2021/12/18 13:11:06;;;;;;;3.22;1.70;;;9.00;99.90;;;;;;5069947;28;20401;-76
2021/12/18 13:13:34;;;;;;;5.22;2.42;;;9.00;99.90;;;;;;5056712;28;20047;-82
2021/12/18 13:16:10;;;;;;;6.38;2.88;;;9.00;99.90;;;;;;5057149;28;20047;-82
2021/12/18 13:18:57;;;;;;;4.25;2.60;;;9.00;99.90;;;;;;5073856;28;20761;-77
2021/12/18 13:21:24;;;;;;;4.10;1.73;;;9.10;99.90;;;;;;5072518;28;20052;-83
2021/12/18 13:24:02;;;;;;;4.90;2.63;;;9.00;99.90;;;;;;5073682;28;20036;-76
2021/12/18 13:26:39;;;;;;;3.97;2.03;;;9.10;99.90;;;;;;5073597;28;20503;-83
2021/12/18 13:29:14;;;;;;;9.80;3.20;;;9.10;99.90;;;;;;5073452;28;20040;-76
2021/12/18 13:31:49;;;;;;;5.50;1.70;;;9.10;99.90;;;;;;5073530;28;20093;-83
2021/12/18 13:34:24;;;;;;;4.00;2.22;;;9.10;99.90;;;;;;5056191;28;20396;-83
2021/12/18 13:36:56;;;;;;;4.82;1.52;;;9.10;99.90;;;;;;5054359;28;20044;-82
2021/12/18 13:39:26;;;;;;;7.18;2.00;;;9.10;99.90;;;;;;5052023;28;20126;-84
2021/12/18 13:42:01;;;;;;;7.18;1.75;;;9.10;99.90;;;;;;5055211;28;20100;-83
2021/12/18 13:44:50;;;;;;;6.40;2.53;;;9.10;99.90;;;;;;5053036;28;20044;-83